Time;durP1;ratioP1;P1;durP2;ratioP2;P2;SDS_P1;SDS_P2;PMS_P1;PMS_P2;Temp;Humidity;BMP_temperature;BMP_pressure;BME280_temperature;BME280_humidity;BME280_pressure;Samples;Min_cycle;Max_cycle;Signal;HPM_P1;HPM_P2
2022/07/15 00:02:23;;;;;;;1999.90;999.90;;;17.00;99.90;;;;;;4993893;28;20187;-72
2022/07/15 00:04:49;;;;;;;1999.90;999.90;;;17.00;99.90;;;;;;4993507;28;20202;-72
2022/07/15 00:07:15;;;;;;;1999.90;999.90;;;17.10;99.90;;;;;;4993321;28;20180;-72
2022/07/15 00:12:26;;;;;;;1999.90;999.90;;;17.10;99.90;;;;;;4993667;28;20407;-72
2022/07/15 00:14:52;;;;;;;1999.90;999.90;;;16.90;99.90;;;;;;4993657;28;21021;-72
2022/07/15 00:17:18;;;;;;;1999.90;999.90;;;16.90;99.90;;;;;;4993226;28;20919;-72
2022/07/15 00:19:44;;;;;;;1999.90;999.90;;;16.90;99.90;;;;;;4993459;28;20204;-72
2022/07/15 00:22:11;;;;;;;1999.90;999.90;;;16.80;99.90;;;;;;4993436;28;20788;-72
2022/07/15 00:24:37;;;;;;;1999.90;999.90;;;16.70;99.90;;;;;;4993672;28;20324;-73
2022/07/15 00:27:03;;;;;;;1999.90;999.90;;;16.60;99.90;;;;;;4993689;28;20405;-73
2022/07/15 00:29:29;;;;;;;1999.90;999.90;;;16.50;99.90;;;;;;4994325;28;20930;-72
2022/07/15 00:31:55;;;;;;;1999.90;999.90;;;16.40;99.90;;;;;;4994137;28;20174;-72
2022/07/15 00:34:21;;;;;;;1999.90;999.90;;;16.40;99.90;;;;;;4993934;28;20486;-72
2022/07/15 00:36:47;;;;;;;1999.90;999.90;;;16.40;99.90;;;;;;4992978;28;20208;-72
2022/07/15 00:39:13;;;;;;;1999.90;999.90;;;16.30;99.90;;;;;;4993075;28;20180;-72
2022/07/15 00:41:40;;;;;;;1999.90;999.90;;;16.20;99.90;;;;;;4993069;28;20808;-71
2022/07/15 00:44:06;;;;;;;1999.90;999.90;;;16.10;99.90;;;;;;5015153;23;20529;-70
2022/07/15 00:46:32;;;;;;;1999.90;999.90;;;16.00;99.90;;;;;;5014325;28;20791;-70
2022/07/15 00:48:58;;;;;;;1999.90;999.90;;;16.00;99.90;;;;;;5012519;28;20416;-69
2022/07/15 00:51:24;;;;;;;1999.90;999.90;;;16.00;99.90;;;;;;5012221;28;20409;-69
2022/07/15 00:53:52;;;;;;;1999.90;999.90;;;16.10;99.90;;;;;;5012517;28;20415;-69
2022/07/15 00:56:19;;;;;;;1999.90;999.90;;;16.00;99.90;;;;;;5012109;28;20941;-69
2022/07/15 00:58:47;;;;;;;1999.90;999.90;;;16.00;99.90;;;;;;5012276;28;20977;-69
2022/07/15 01:01:14;;;;;;;1999.90;999.90;;;16.00;99.90;;;;;;5012431;28;20398;-69
2022/07/15 01:03:41;;;;;;;1999.90;999.90;;;16.10;99.90;;;;;;5012053;28;20941;-69
2022/07/15 01:06:06;;;;;;;1999.90;999.90;;;16.10;99.90;;;;;;5012067;28;20471;-69
2022/07/15 01:08:32;;;;;;;1999.90;999.90;;;16.10;99.90;;;;;;5011937;28;20407;-69
2022/07/15 01:10:57;;;;;;;1999.90;999.90;;;16.10;99.90;;;;;;5012278;28;20168;-69
2022/07/15 01:13:23;;;;;;;1999.90;999.90;;;16.10;99.90;;;;;;5012196;28;20646;-69
2022/07/15 01:15:49;;;;;;;1999.90;999.90;;;16.10;99.90;;;;;;5012149;28;20182;-70
2022/07/15 01:18:15;;;;;;;1999.90;999.90;;;16.10;99.90;;;;;;5011614;28;20158;-69
2022/07/15 01:20:41;;;;;;;1999.90;999.90;;;16.00;99.90;;;;;;5012058;28;20738;-69
2022/07/15 01:23:07;;;;;;;1999.90;999.90;;;16.00;99.90;;;;;;5011804;28;20222;-69
2022/07/15 01:25:33;;;;;;;1999.90;999.90;;;16.00;99.90;;;;;;5011509;28;20447;-69
2022/07/15 01:27:59;;;;;;;1999.90;999.90;;;16.00;99.90;;;;;;5011475;28;20185;-68
2022/07/15 01:30:25;;;;;;;1999.90;999.90;;;16.00;99.90;;;;;;5011969;28;20414;-69
2022/07/15 01:32:51;;;;;;;1999.90;999.90;;;16.00;99.90;;;;;;5012017;28;20414;-69
2022/07/15 01:35:17;;;;;;;1999.90;999.90;;;16.00;99.90;;;;;;5011984;28;20224;-69
2022/07/15 01:37:44;;;;;;;1999.90;999.90;;;15.90;99.90;;;;;;5011798;28;20408;-69
2022/07/15 01:40:10;;;;;;;1999.90;999.90;;;15.90;99.90;;;;;;5011906;28;20472;-69
2022/07/15 01:42:37;;;;;;;1999.90;999.90;;;15.90;99.90;;;;;;5011873;28;20444;-70
2022/07/15 01:45:04;;;;;;;1999.90;999.90;;;15.90;99.90;;;;;;5011679;28;20462;-69
2022/07/15 01:47:32;;;;;;;1999.90;999.90;;;15.90;99.90;;;;;;5011669;28;20440;-69
2022/07/15 01:49:58;;;;;;;1999.90;999.90;;;16.00;99.90;;;;;;5012158;28;20822;-69
2022/07/15 01:52:24;;;;;;;1999.90;999.90;;;15.90;99.90;;;;;;5015259;28;20403;-69
2022/07/15 01:54:50;;;;;;;1999.90;999.90;;;15.80;99.90;;;;;;5015639;28;20511;-69
2022/07/15 01:57:17;;;;;;;1999.90;999.90;;;15.80;99.90;;;;;;5015397;28;20530;-69
2022/07/15 01:59:42;;;;;;;1999.90;999.90;;;15.80;99.90;;;;;;5015505;28;20408;-70
2022/07/15 02:02:08;;;;;;;1999.90;999.90;;;15.70;99.90;;;;;;5015459;28;20421;-69
2022/07/15 02:04:34;;;;;;;1999.90;999.90;;;15.60;99.90;;;;;;5015128;28;20200;-68
2022/07/15 02:07:00;;;;;;;1999.90;999.90;;;15.60;99.90;;;;;;5014839;28;20196;-68
2022/07/15 02:09:25;;;;;;;1999.90;999.90;;;15.50;99.90;;;;;;5015330;28;20171;-68
2022/07/15 02:11:51;;;;;;;1999.90;999.90;;;15.40;99.90;;;;;;5015422;28;20288;-69
2022/07/15 02:14:17;;;;;;;1999.90;999.90;;;15.40;99.90;;;;;;5015186;28;20197;-68
2022/07/15 02:16:43;;;;;;;1999.90;999.90;;;15.40;99.90;;;;;;5015152;28;20252;-69
2022/07/15 02:19:08;;;;;;;1999.90;999.90;;;15.40;99.90;;;;;;5014741;28;20380;-68
2022/07/15 02:21:35;;;;;;;1999.90;999.90;;;15.40;99.90;;;;;;5014975;28;20176;-67
2022/07/15 02:24:00;;;;;;;1999.90;999.90;;;15.40;99.90;;;;;;5014657;28;20198;-68
2022/07/15 02:26:26;;;;;;;1999.90;999.90;;;15.40;99.90;;;;;;5014849;28;20908;-68
2022/07/15 02:28:52;;;;;;;1999.90;999.90;;;15.40;99.90;;;;;;5015123;28;20192;-68
2022/07/15 02:31:18;;;;;;;1999.90;999.90;;;15.40;99.90;;;;;;5014367;28;20169;-68
2022/07/15 02:33:43;;;;;;;1999.90;999.90;;;15.30;99.90;;;;;;5014800;28;20452;-68
2022/07/15 02:36:10;;;;;;;1999.90;999.90;;;15.30;99.90;;;;;;5014698;28;20233;-68
2022/07/15 02:38:36;;;;;;;1999.90;999.90;;;15.20;99.90;;;;;;5014965;28;20233;-68
2022/07/15 02:41:02;;;;;;;1999.90;999.90;;;15.30;99.90;;;;;;5014564;28;20407;-68
2022/07/15 02:43:28;;;;;;;1999.90;999.90;;;15.20;99.90;;;;;;5014479;28;20532;-68
2022/07/15 02:45:55;;;;;;;1999.90;999.90;;;15.20;99.90;;;;;;5014740;28;20770;-68
2022/07/15 02:48:21;;;;;;;1999.90;999.90;;;15.20;99.90;;;;;;5014572;28;20397;-68
2022/07/15 02:50:48;;;;;;;1999.90;999.90;;;15.20;99.90;;;;;;5014672;28;20407;-68
2022/07/15 02:53:13;;;;;;;1999.90;999.90;;;15.20;99.90;;;;;;5016724;28;20530;-69
2022/07/15 02:55:39;;;;;;;1999.90;999.90;;;15.20;99.90;;;;;;5014853;28;20909;-69
2022/07/15 02:58:05;;;;;;;1999.90;999.90;;;15.30;99.90;;;;;;5014561;28;20219;-68
2022/07/15 03:00:30;;;;;;;1999.90;999.90;;;15.30;99.90;;;;;;5014478;28;20199;-68
2022/07/15 03:02:56;;;;;;;1999.90;999.90;;;15.30;99.90;;;;;;5013326;28;20172;-68
2022/07/15 03:05:21;;;;;;;1999.90;999.90;;;15.40;99.90;;;;;;5014191;28;20207;-68
2022/07/15 03:07:47;;;;;;;1999.90;999.90;;;15.40;99.90;;;;;;5013996;28;20173;-68
2022/07/15 03:10:13;;;;;;;1999.90;999.90;;;15.40;99.90;;;;;;5014202;28;20253;-68
2022/07/15 03:12:39;;;;;;;1999.90;999.90;;;15.40;99.90;;;;;;5014240;28;20192;-69
2022/07/15 03:15:05;;;;;;;1999.90;999.90;;;15.50;99.90;;;;;;5014278;28;20434;-69
2022/07/15 03:17:31;;;;;;;1999.90;999.90;;;15.50;99.90;;;;;;5013740;28;20675;-68
2022/07/15 03:19:57;;;;;;;1999.90;999.90;;;15.50;99.90;;;;;;5014222;28;20432;-68
2022/07/15 03:22:27;;;;;;;1999.90;999.90;;;15.40;99.90;;;;;;5014147;28;20577;-68
2022/07/15 03:24:53;;;;;;;1999.90;999.90;;;15.50;99.90;;;;;;5013974;28;20196;-68
2022/07/15 03:27:19;;;;;;;1999.90;999.90;;;15.40;99.90;;;;;;5013731;28;20408;-69
2022/07/15 03:29:45;;;;;;;1999.90;999.90;;;15.50;99.90;;;;;;5014736;28;20410;-68
2022/07/15 03:32:11;;;;;;;1999.90;999.90;;;15.50;99.90;;;;;;5015864;28;20481;-69
2022/07/15 03:34:37;;;;;;;1999.90;999.90;;;15.50;99.90;;;;;;5017407;28;20279;-69
2022/07/15 03:37:03;;;;;;;1999.90;999.90;;;15.60;99.90;;;;;;5017091;28;20406;-68
2022/07/15 03:39:28;;;;;;;1999.90;999.90;;;15.60;99.90;;;;;;5017042;28;20403;-69
2022/07/15 03:41:54;;;;;;;1999.90;999.90;;;15.60;99.90;;;;;;5014904;28;20206;-68
2022/07/15 03:44:20;;;;;;;1999.90;999.90;;;15.60;99.90;;;;;;5014694;28;20216;-69
2022/07/15 03:46:46;;;;;;;1999.90;999.90;;;15.50;99.90;;;;;;5016427;28;20165;-68
2022/07/15 03:49:15;;;;;;;1999.90;999.90;;;15.50;99.90;;;;;;5018571;28;20223;-68
2022/07/15 03:51:42;;;;;;;1999.90;999.90;;;15.40;99.90;;;;;;5016800;28;20184;-69
2022/07/15 03:54:07;;;;;;;1999.90;999.90;;;15.40;99.90;;;;;;5019581;28;20426;-68
2022/07/15 03:56:33;;;;;;;1999.90;999.90;;;15.30;99.90;;;;;;5019618;28;20964;-68
2022/07/15 03:58:59;;;;;;;1999.90;999.90;;;15.40;99.90;;;;;;5018916;28;20175;-69
2022/07/15 04:01:25;;;;;;;1999.90;999.90;;;15.40;99.90;;;;;;5019335;28;20412;-68
2022/07/15 04:03:51;;;;;;;1999.90;999.90;;;15.40;99.90;;;;;;5019339;28;20458;-68
2022/07/15 04:06:18;;;;;;;1999.90;999.90;;;15.30;99.90;;;;;;5019665;28;20235;-68
2022/07/15 04:08:44;;;;;;;1999.90;999.90;;;15.20;99.90;;;;;;5020124;28;20466;-68
2022/07/15 04:11:11;;;;;;;1999.90;999.90;;;15.20;99.90;;;;;;5019474;28;20403;-68
2022/07/15 04:13:37;;;;;;;1999.90;999.90;;;15.20;99.90;;;;;;5018254;28;20797;-68
2022/07/15 04:16:03;;;;;;;1999.90;999.90;;;15.20;99.90;;;;;;5019769;28;20407;-68
2022/07/15 04:18:29;;;;;;;1999.90;999.90;;;15.20;99.90;;;;;;5020269;28;20450;-69
2022/07/15 04:20:55;;;;;;;1999.90;999.90;;;15.20;99.90;;;;;;5019679;28;20400;-68
2022/07/15 04:23:20;;;;;;;1999.90;999.90;;;15.20;99.90;;;;;;5019704;28;20259;-69
2022/07/15 04:25:46;;;;;;;1999.90;999.90;;;15.20;99.90;;;;;;5017933;28;20205;-69
2022/07/15 04:28:11;;;;;;;1999.90;999.90;;;15.30;99.90;;;;;;5014605;28;20172;-68
2022/07/15 04:30:37;;;;;;;1999.90;999.90;;;15.30;99.90;;;;;;5012903;28;20182;-69
2022/07/15 04:33:03;;;;;;;1999.90;999.90;;;15.30;99.90;;;;;;5013113;28;20172;-68
2022/07/15 04:35:28;;;;;;;1999.90;999.90;;;15.30;99.90;;;;;;5016227;28;20669;-69
2022/07/15 04:37:55;;;;;;;1999.90;999.90;;;15.40;99.90;;;;;;5018958;28;20217;-69
2022/07/15 04:40:20;;;;;;;1999.90;999.90;;;15.30;99.90;;;;;;5015643;28;20594;-69
2022/07/15 04:42:46;;;;;;;1999.90;999.90;;;15.40;99.90;;;;;;5012691;28;20543;-68
2022/07/15 04:45:12;;;;;;;1999.90;999.90;;;15.40;99.90;;;;;;5012389;28;20357;-68
2022/07/15 04:47:37;;;;;;;1999.90;999.90;;;15.40;99.90;;;;;;5012400;28;20545;-68
2022/07/15 04:52:48;;;;;;;1999.90;999.90;;;15.40;99.90;;;;;;5012669;28;20179;-68
2022/07/15 04:55:14;;;;;;;1999.90;999.90;;;15.40;99.90;;;;;;5012424;28;20419;-68
2022/07/15 04:57:41;;;;;;;1999.90;999.90;;;15.40;99.90;;;;;;5012267;28;20749;-68
2022/07/15 05:00:08;;;;;;;1999.90;999.90;;;15.30;99.90;;;;;;5012527;28;20409;-68
2022/07/15 05:02:33;;;;;;;1999.90;999.90;;;15.40;99.90;;;;;;5012451;28;20414;-68
2022/07/15 05:04:59;;;;;;;1999.90;999.90;;;15.30;99.90;;;;;;5012284;28;20469;-68
2022/07/15 05:07:25;;;;;;;1999.90;999.90;;;15.20;99.90;;;;;;5012236;28;20222;-68
2022/07/15 05:09:50;;;;;;;1999.90;999.90;;;15.20;99.90;;;;;;5012374;28;20410;-68
2022/07/15 05:12:16;;;;;;;1999.90;999.90;;;15.30;99.90;;;;;;5012326;28;20168;-69
2022/07/15 05:14:42;;;;;;;1999.90;999.90;;;15.30;99.90;;;;;;5012223;28;20249;-68
2022/07/15 05:17:08;;;;;;;1999.90;999.90;;;15.30;99.90;;;;;;5012006;28;20552;-69
2022/07/15 05:19:34;;;;;;;1999.90;999.90;;;15.30;99.90;;;;;;5013171;28;20179;-69
2022/07/15 05:22:00;;;;;;;1999.90;999.90;;;15.30;99.90;;;;;;5013920;28;20416;-69
2022/07/15 05:24:26;;;;;;;1999.90;999.90;;;15.30;99.90;;;;;;5012124;28;20211;-69
2022/07/15 05:26:51;;;;;;;1999.90;999.90;;;15.30;99.90;;;;;;5014744;28;20664;-68
2022/07/15 05:29:17;;;;;;;1999.90;999.90;;;15.40;99.90;;;;;;5016242;28;20588;-69
2022/07/15 05:31:43;;;;;;;1999.90;999.90;;;15.40;99.90;;;;;;5018078;28;20176;-68
2022/07/15 05:34:09;;;;;;;1999.90;999.90;;;15.60;99.90;;;;;;5019597;28;20228;-68
2022/07/15 05:36:35;;;;;;;1999.90;999.90;;;15.60;99.90;;;;;;5019216;28;20184;-69
2022/07/15 05:39:01;;;;;;;1999.90;999.90;;;15.60;99.90;;;;;;5019162;28;20409;-68
2022/07/15 05:41:26;;;;;;;1999.90;999.90;;;15.70;99.90;;;;;;5017595;28;20192;-68
2022/07/15 05:43:52;;;;;;;1999.90;999.90;;;15.80;99.90;;;;;;5015887;28;20210;-69
2022/07/15 05:46:18;;;;;;;1999.90;999.90;;;15.80;99.90;;;;;;5015883;28;20215;-68
2022/07/15 05:48:43;;;;;;;1999.90;999.90;;;15.80;99.90;;;;;;5017041;28;20171;-69
2022/07/15 05:51:09;;;;;;;1999.90;999.90;;;15.90;99.90;;;;;;5024307;28;20172;-68
2022/07/15 05:53:35;;;;;;;1999.90;999.90;;;15.90;99.90;;;;;;5026532;28;20211;-68
2022/07/15 05:56:00;;;;;;;1999.90;999.90;;;16.00;99.90;;;;;;5025554;28;20424;-68
2022/07/15 05:58:26;;;;;;;1999.90;999.90;;;16.00;99.90;;;;;;5025698;28;20186;-69
2022/07/15 06:00:52;;;;;;;1999.90;999.90;;;16.00;99.90;;;;;;5022001;28;20741;-68
2022/07/15 06:03:18;;;;;;;1999.90;999.90;;;16.00;99.90;;;;;;5025308;28;20217;-69
2022/07/15 06:05:44;;;;;;;1999.90;999.90;;;15.90;99.90;;;;;;5021868;28;20492;-68
2022/07/15 06:08:10;;;;;;;1999.90;999.90;;;15.90;99.90;;;;;;5014893;28;20402;-68
2022/07/15 06:10:36;;;;;;;1999.90;999.90;;;15.90;99.90;;;;;;5015117;28;20446;-68
2022/07/15 06:13:02;;;;;;;1999.90;999.90;;;15.90;99.90;;;;;;5014139;28;20450;-68
2022/07/15 06:15:28;;;;;;;1999.90;999.90;;;15.90;99.90;;;;;;5015365;28;20466;-68
2022/07/15 06:17:54;;;;;;;1999.90;999.90;;;16.00;99.90;;;;;;5015230;28;20442;-69
2022/07/15 06:20:20;;;;;;;1999.90;999.90;;;16.00;99.90;;;;;;5018663;28;20806;-68
2022/07/15 06:22:45;;;;;;;1999.90;999.90;;;16.10;99.90;;;;;;5020096;28;20187;-68
2022/07/15 06:25:12;;;;;;;1999.90;999.90;;;16.30;99.90;;;;;;5014903;28;20204;-69
2022/07/15 06:27:37;;;;;;;1999.90;999.90;;;16.30;99.90;;;;;;5014981;28;20169;-68
2022/07/15 06:30:04;;;;;;;1999.90;999.90;;;16.40;99.90;;;;;;5015228;28;20927;-69
2022/07/15 06:32:29;;;;;;;1999.90;999.90;;;16.40;99.90;;;;;;5019288;28;20176;-69
2022/07/15 06:34:55;;;;;;;1999.90;999.90;;;16.50;99.90;;;;;;5014994;28;20435;-68
2022/07/15 06:37:21;;;;;;;1999.90;999.90;;;16.50;99.90;;;;;;5020291;28;20183;-68
2022/07/15 06:39:47;;;;;;;1999.90;999.90;;;16.50;99.90;;;;;;5022458;28;20242;-69
2022/07/15 06:42:12;;;;;;;1999.90;999.90;;;16.60;99.90;;;;;;5016237;28;20270;-69
2022/07/15 06:44:38;;;;;;;1999.90;999.90;;;16.70;99.90;;;;;;5020121;28;20524;-69
2022/07/15 06:47:06;;;;;;;1999.90;999.90;;;16.70;99.90;;;;;;5014412;28;20654;-69
2022/07/15 06:49:33;;;;;;;1999.90;999.90;;;16.70;99.90;;;;;;5014675;28;20175;-69
2022/07/15 06:51:58;;;;;;;1999.90;999.90;;;16.70;99.90;;;;;;5014714;28;20400;-68
2022/07/15 06:54:25;;;;;;;1999.90;999.90;;;16.90;99.90;;;;;;5014597;28;20433;-69
2022/07/15 06:56:50;;;;;;;1999.90;999.90;;;17.00;99.90;;;;;;5014274;28;20169;-69
2022/07/15 06:59:16;;;;;;;1999.90;999.90;;;17.10;99.90;;;;;;5014579;28;20543;-68
2022/07/15 07:01:42;;;;;;;1999.90;999.90;;;17.10;99.90;;;;;;5014520;28;20170;-69
2022/07/15 07:04:07;;;;;;;1999.90;999.90;;;17.20;99.90;;;;;;5014701;28;20688;-68
2022/07/15 07:06:33;;;;;;;1999.90;999.90;;;17.30;99.90;;;;;;5019647;28;20167;-69
2022/07/15 07:08:59;;;;;;;1999.90;999.90;;;17.60;99.90;;;;;;5019730;28;20165;-68
2022/07/15 07:11:25;;;;;;;1999.90;999.90;;;17.60;99.90;;;;;;5020301;28;20815;-68
2022/07/15 07:13:51;;;;;;;1999.90;999.90;;;17.70;99.90;;;;;;5017010;28;20190;-69
2022/07/15 07:16:17;;;;;;;1999.90;999.90;;;17.80;99.90;;;;;;5014085;28;20956;-68
2022/07/15 07:18:45;;;;;;;1999.90;999.90;;;17.90;99.90;;;;;;5014313;28;20451;-68
2022/07/15 07:21:11;;;;;;;1999.90;999.90;;;17.80;99.90;;;;;;5014200;28;20446;-68
2022/07/15 07:23:39;;;;;;;1999.90;999.90;;;17.70;99.90;;;;;;5014153;28;20503;-68
2022/07/15 07:26:06;;;;;;;1999.90;999.90;;;17.50;99.90;;;;;;5013842;28;20401;-68
2022/07/15 07:28:32;;;;;;;1999.90;999.90;;;17.60;99.90;;;;;;5014364;28;20417;-68
2022/07/15 07:30:59;;;;;;;1999.90;999.90;;;17.80;99.90;;;;;;5017808;28;20570;-67
2022/07/15 07:33:25;;;;;;;1999.90;999.90;;;18.10;99.90;;;;;;5013817;28;20415;-68
2022/07/15 07:35:51;;;;;;;1999.90;999.90;;;18.40;99.90;;;;;;5013756;28;20443;-68
2022/07/15 07:38:17;;;;;;;1999.90;999.90;;;18.60;99.90;;;;;;5013659;28;21059;-68
2022/07/15 07:40:43;;;;;;;1999.90;999.90;;;18.70;99.90;;;;;;5013737;28;20968;-68
2022/07/15 07:43:09;;;;;;;1999.90;999.90;;;18.80;99.90;;;;;;5013739;28;20489;-69
2022/07/15 07:45:35;;;;;;;1999.90;999.90;;;19.00;99.90;;;;;;5013462;28;20549;-69
2022/07/15 07:48:01;;;;;;;1999.90;999.90;;;19.10;99.90;;;;;;5013017;28;20729;-68
2022/07/15 07:50:27;;;;;;;1999.90;999.90;;;19.30;99.90;;;;;;5013456;28;20192;-69
2022/07/15 07:52:53;;;;;;;1999.90;999.90;;;19.30;99.90;;;;;;5013542;28;20408;-68
2022/07/15 07:55:19;;;;;;;1999.90;999.90;;;19.10;99.90;;;;;;5013454;28;20187;-68
2022/07/15 07:57:52;;;;;;;1999.90;999.90;;;18.90;99.90;;;;;;5010320;28;20422;-69
2022/07/15 08:00:19;;;;;;;1999.90;999.90;;;19.00;99.90;;;;;;5012110;28;20175;-70
2022/07/15 08:02:45;;;;;;;1999.90;999.90;;;19.00;99.90;;;;;;5012888;28;20403;-70
2022/07/15 08:05:11;;;;;;;1999.90;999.90;;;19.20;99.90;;;;;;5012734;28;20469;-70
2022/07/15 08:07:37;;;;;;;1999.90;999.90;;;19.20;99.90;;;;;;5012799;28;20404;-70
2022/07/15 08:10:04;;;;;;;1999.90;999.90;;;19.00;99.90;;;;;;5012722;28;20847;-70
2022/07/15 08:12:30;;;;;;;1999.90;999.90;;;19.20;99.90;;;;;;5013160;28;20462;-71
2022/07/15 08:14:56;;;;;;;1999.90;999.90;;;19.40;99.90;;;;;;5013084;28;20433;-70
2022/07/15 08:17:22;;;;;;;1999.90;999.90;;;19.60;99.90;;;;;;5012813;28;20954;-70
2022/07/15 08:19:48;;;;;;;1999.90;999.90;;;19.60;99.90;;;;;;5012979;28;20477;-71
2022/07/15 08:22:14;;;;;;;1999.90;999.90;;;19.80;99.90;;;;;;5012998;28;20385;-70
2022/07/15 08:24:40;;;;;;;1999.90;999.90;;;19.90;99.90;;;;;;5009363;28;20895;-71
2022/07/15 08:27:05;;;;;;;1999.90;999.90;;;20.00;99.90;;;;;;5011747;28;20513;-70
2022/07/15 08:29:31;;;;;;;1999.90;999.90;;;20.10;99.90;;;;;;5012308;28;20409;-71
2022/07/15 08:31:57;;;;;;;1999.90;999.90;;;20.30;99.90;;;;;;5011777;28;20230;-71
2022/07/15 08:34:22;;;;;;;1999.90;999.90;;;20.40;99.90;;;;;;5012228;28;20193;-71
2022/07/15 08:36:48;;;;;;;1999.90;999.90;;;20.30;99.90;;;;;;5011936;28;20168;-71
2022/07/15 08:39:15;;;;;;;1999.90;999.90;;;20.50;99.90;;;;;;5011833;28;20175;-69
2022/07/15 08:41:41;;;;;;;1999.90;999.90;;;20.60;99.90;;;;;;5012240;28;20499;-68
2022/07/15 08:44:07;;;;;;;1999.90;999.90;;;20.60;99.90;;;;;;5011943;28;20489;-69
2022/07/15 08:46:34;;;;;;;1999.90;999.90;;;20.40;99.90;;;;;;5011225;28;20392;-69
2022/07/15 08:49:12;;;;;;;1999.90;999.90;;;20.20;99.90;;;;;;5011783;28;20405;-70
2022/07/15 08:51:42;;;;;;;1999.90;999.90;;;20.10;99.90;;;;;;5012005;28;20371;-70
2022/07/15 08:54:08;;;;;;;1999.90;999.90;;;20.10;99.90;;;;;;5011621;28;20402;-70
2022/07/15 08:56:35;;;;;;;1999.90;999.90;;;20.10;99.90;;;;;;5011681;28;20437;-69
2022/07/15 08:59:02;;;;;;;1999.90;999.90;;;19.90;99.90;;;;;;5011917;28;20377;-69
2022/07/15 09:01:29;;;;;;;1999.90;999.90;;;19.90;99.90;;;;;;5011186;28;20419;-69
2022/07/15 09:03:55;;;;;;;1999.90;999.90;;;20.00;99.90;;;;;;5011705;28;20426;-69
2022/07/15 09:06:34;;;;;;;1999.90;999.90;;;20.10;99.90;;;;;;5011437;28;20410;-70
2022/07/15 09:09:26;;;;;;;1999.90;999.90;;;20.00;99.90;;;;;;5012228;28;20193;-69
2022/07/15 09:11:57;;;;;;;1999.90;999.90;;;20.20;99.80;;;;;;5012964;28;20956;-69
2022/07/15 09:14:30;;;;;;;1999.90;999.90;;;20.40;99.90;;;;;;5012685;28;20513;-69
2022/07/15 09:17:10;;;;;;;1999.90;999.90;;;20.60;97.10;;;;;;5013191;28;20486;-69
2022/07/15 09:20:01;;;;;;;1999.90;999.90;;;20.70;99.50;;;;;;5012665;28;20404;-69
2022/07/15 09:22:29;;;;;;;1999.90;999.90;;;20.80;99.90;;;;;;5012655;28;20479;-69
2022/07/15 09:25:13;;;;;;;1999.90;999.90;;;20.80;97.90;;;;;;5013400;28;20437;-69
2022/07/15 09:27:41;;;;;;;1999.90;999.90;;;21.00;97.70;;;;;;5012333;28;20548;-69
2022/07/15 09:33:39;;;;;;;1999.90;999.90;;;21.40;95.20;;;;;;5017387;28;20374;-69
2022/07/15 09:36:23;;;;;;;1999.90;999.90;;;21.60;91.90;;;;;;5017547;28;20416;-69
2022/07/15 09:38:50;;;;;;;1999.90;999.90;;;21.80;89.00;;;;;;5018789;28;20382;-68
2022/07/15 09:41:31;;;;;;;1999.90;999.90;;;22.00;88.20;;;;;;5016633;28;20869;-69
2022/07/15 09:44:05;;;;;;;1999.90;999.90;;;21.90;83.60;;;;;;5013623;28;20455;-67
2022/07/15 09:46:57;;;;;;;1999.90;999.90;;;21.70;81.80;;;;;;5014536;28;20422;-67
2022/07/15 09:49:22;;;;;;;1999.90;999.90;;;21.50;86.20;;;;;;5015050;28;20926;-69
2022/07/15 09:51:55;;;;;;;1999.90;999.90;;;21.30;85.90;;;;;;5013374;28;20422;-69
2022/07/15 09:54:23;;;;;;;1999.90;999.90;;;21.50;84.70;;;;;;5011146;28;20209;-68
2022/07/15 09:56:50;;;;;;;1999.90;999.90;;;21.90;87.40;;;;;;5011051;28;20438;-68
2022/07/15 09:59:17;;;;;;;1999.90;999.90;;;22.30;89.40;;;;;;5011362;28;20417;-68
2022/07/15 10:01:43;;;;;;;1999.90;999.90;;;22.80;86.20;;;;;;5011128;28;20774;-67
2022/07/15 10:04:09;;;;;;;1999.90;999.90;;;23.00;79.50;;;;;;5011339;28;20813;-67
2022/07/15 10:06:38;;;;;;;1999.90;999.90;;;23.10;73.70;;;;;;5010578;28;20451;-68
2022/07/15 10:09:06;;;;;;;1999.90;999.90;;;22.70;70.60;;;;;;5011426;28;20411;-70
2022/07/15 10:11:35;;;;;;;1999.90;999.90;;;22.20;71.00;;;;;;5011779;28;20413;-67
2022/07/15 10:14:34;;;;;;;1999.90;999.90;;;22.10;74.10;;;;;;5014280;28;20440;-68
2022/07/15 10:17:19;;;;;;;1999.90;999.90;;;22.30;75.40;;;;;;5014559;28;20408;-69
2022/07/15 10:20:07;;;;;;;1999.90;999.90;;;22.50;69.60;;;;;;5014765;28;20445;-69
2022/07/15 10:23:01;;;;;;;1999.90;999.90;;;22.90;67.10;;;;;;5014395;28;20415;-70
2022/07/15 10:26:12;;;;;;;1999.90;999.90;;;23.00;60.70;;;;;;5014584;28;20461;-72
2022/07/15 10:29:04;;;;;;;1999.90;999.90;;;23.10;59.00;;;;;;4972714;28;20429;-71
2022/07/15 10:31:31;;;;;;;1999.90;999.90;;;23.40;57.20;;;;;;5014623;28;20418;-71
2022/07/15 10:34:17;;;;;;;1999.90;999.90;;;23.50;55.90;;;;;;5014519;28;20423;-69
2022/07/15 10:36:53;;;;;;;1999.90;999.90;;;23.70;54.70;;;;;;5013542;28;20943;-67
2022/07/15 10:39:21;;;;;;;1999.90;999.90;;;23.70;48.70;;;;;;5014564;28;20386;-69
2022/07/15 10:41:54;;;;;;;1999.90;999.90;;;23.40;48.30;;;;;;5014385;28;20390;-69
2022/07/15 10:44:20;;;;;;;1999.90;999.90;;;22.80;50.00;;;;;;5013642;28;20463;-69
2022/07/15 10:46:46;;;;;;;1999.90;999.90;;;22.40;49.10;;;;;;5014086;28;20393;-69
2022/07/15 10:49:11;;;;;;;1999.90;999.90;;;22.60;52.10;;;;;;5014191;28;20407;-69
2022/07/15 10:51:37;;;;;;;1999.90;999.90;;;22.80;50.40;;;;;;5013721;28;20691;-69
2022/07/15 10:54:18;;;;;;;1999.90;999.90;;;22.90;50.50;;;;;;5014012;28;21026;-69
2022/07/15 10:56:47;;;;;;;1999.90;999.90;;;23.00;48.70;;;;;;5013335;28;20177;-69
2022/07/15 10:59:15;;;;;;;1999.90;999.90;;;22.80;46.90;;;;;;5013596;28;20394;-69
2022/07/15 11:01:43;;;;;;;1999.90;999.90;;;22.90;49.90;;;;;;5013963;28;20418;-69
2022/07/15 11:04:26;;;;;;;1999.90;999.90;;;23.80;49.10;;;;;;5013819;28;20534;-69
2022/07/15 11:07:07;;;;;;;1999.90;999.90;;;24.70;45.50;;;;;;5013334;28;20393;-69
2022/07/15 11:09:57;;;;;;;1999.90;999.90;;;25.20;40.80;;;;;;5014011;28;20482;-69
2022/07/15 11:12:49;;;;;;;1999.90;999.90;;;25.40;39.40;;;;;;5013798;28;20406;-69
2022/07/15 11:15:19;;;;;;;1999.90;999.90;;;25.00;36.90;;;;;;5007707;28;20480;-69
2022/07/15 11:17:49;;;;;;;1999.90;999.90;;;24.60;37.70;;;;;;5013240;28;20765;-69
2022/07/15 11:20:21;;;;;;;1999.90;999.90;;;24.40;40.40;;;;;;5011909;28;20515;-69
2022/07/15 11:22:48;;;;;;;1999.90;999.90;;;24.50;37.70;;;;;;5013188;28;20478;-69
2022/07/15 11:25:33;;;;;;;1999.90;999.90;;;24.50;38.70;;;;;;5012844;28;20453;-69
2022/07/15 11:28:01;;;;;;;1999.90;999.90;;;24.60;38.90;;;;;;5012755;28;20414;-69
2022/07/15 11:30:33;;;;;;;1999.90;999.90;;;24.30;38.70;;;;;;5013544;28;20383;-69
2022/07/15 11:33:00;;;;;;;1999.90;999.90;;;24.20;37.20;;;;;;5013459;28;20404;-69
2022/07/15 11:35:30;;;;;;;1999.90;999.90;;;23.80;39.20;;;;;;5012133;28;20474;-69
2022/07/15 11:38:02;;;;;;;1999.90;999.90;;;24.10;40.80;;;;;;5013115;28;20566;-69
2022/07/15 11:46:04;;;;;;;1999.90;999.90;;;24.60;35.80;;;;;;5012363;28;20850;-69
2022/07/15 11:48:35;;;;;;;1999.90;999.90;;;24.40;35.70;;;;;;5013364;28;20478;-69
2022/07/15 11:51:01;;;;;;;1999.90;999.90;;;24.00;37.10;;;;;;5012692;28;21045;-69
2022/07/15 11:53:36;;;;;;;1999.90;999.90;;;23.80;37.40;;;;;;5013102;28;20440;-69
2022/07/15 11:56:02;;;;;;;1999.90;999.90;;;23.40;39.60;;;;;;5012290;28;20439;-69
2022/07/15 11:58:30;;;;;;;1999.90;999.90;;;23.20;38.30;;;;;;5012503;28;20412;-69
2022/07/15 12:00:56;;;;;;;1999.90;999.90;;;22.90;39.90;;;;;;5012986;28;20409;-69
2022/07/15 12:03:22;;;;;;;1999.90;999.90;;;23.50;42.40;;;;;;5012880;28;20778;-69
2022/07/15 12:06:05;;;;;;;1999.90;999.90;;;24.40;40.70;;;;;;5012148;28;20434;-69
2022/07/15 12:08:44;;;;;;;1999.90;999.90;;;25.10;37.10;;;;;;5012906;28;20169;-69
2022/07/15 12:11:15;;;;;;;1999.90;999.90;;;25.60;35.60;;;;;;5012779;28;20385;-69
2022/07/15 12:13:48;;;;;;;1999.90;999.90;;;26.30;34.20;;;;;;5012318;28;20486;-69
2022/07/15 12:16:17;;;;;;;1999.90;999.90;;;27.40;33.00;;;;;;5011976;28;20395;-69
2022/07/15 12:18:43;;;;;;;1999.90;999.90;;;28.60;29.40;;;;;;5012552;28;20415;-69